sensor_id;sensor_type;location;lat;lon;timestamp;P1;durP1;ratioP1;P2;durP2;ratioP2
6111;SDS011;3086;48.802;9.394;2023-03-13T00:01:37;10.57;;;3.87;;
6111;SDS011;3086;48.802;9.394;2023-03-13T00:05:00;6.43;;;3.60;;
6111;SDS011;3086;48.802;9.394;2023-03-13T00:08:22;9.23;;;4.03;;
6111;SDS011;3086;48.802;9.394;2023-03-13T00:11:44;6.73;;;3.60;;
6111;SDS011;3086;48.802;9.394;2023-03-13T00:15:06;9.90;;;3.37;;
6111;SDS011;3086;48.802;9.394;2023-03-13T00:18:30;8.40;;;3.60;;
6111;SDS011;3086;48.802;9.394;2023-03-13T00:21:51;8.07;;;3.90;;
6111;SDS011;3086;48.802;9.394;2023-03-13T00:25:13;9.27;;;3.67;;
6111;SDS011;3086;48.802;9.394;2023-03-13T00:28:35;10.03;;;4.00;;
6111;SDS011;3086;48.802;9.394;2023-03-13T00:31:57;6.47;;;3.50;;
6111;SDS011;3086;48.802;9.394;2023-03-13T00:35:20;13.70;;;5.23;;
6111;SDS011;3086;48.802;9.394;2023-03-13T00:38:42;11.63;;;3.83;;
6111;SDS011;3086;48.802;9.394;2023-03-13T00:42:04;9.50;;;4.30;;
6111;SDS011;3086;48.802;9.394;2023-03-13T00:45:26;13.83;;;4.30;;
6111;SDS011;3086;48.802;9.394;2023-03-13T00:48:47;8.27;;;3.60;;
6111;SDS011;3086;48.802;9.394;2023-03-13T00:52:10;11.43;;;3.83;;
6111;SDS011;3086;48.802;9.394;2023-03-13T00:55:32;6.67;;;3.67;;
6111;SDS011;3086;48.802;9.394;2023-03-13T00:58:53;12.63;;;4.10;;
6111;SDS011;3086;48.802;9.394;2023-03-13T01:02:15;12.37;;;4.70;;
6111;SDS011;3086;48.802;9.394;2023-03-13T01:05:36;7.70;;;3.57;;
6111;SDS011;3086;48.802;9.394;2023-03-13T01:08:59;14.80;;;3.93;;
6111;SDS011;3086;48.802;9.394;2023-03-13T01:12:21;8.57;;;3.90;;
6111;SDS011;3086;48.802;9.394;2023-03-13T01:15:42;11.23;;;4.03;;
6111;SDS011;3086;48.802;9.394;2023-03-13T01:19:04;8.20;;;3.67;;
6111;SDS011;3086;48.802;9.394;2023-03-13T01:22:27;8.37;;;3.87;;
6111;SDS011;3086;48.802;9.394;2023-03-13T01:25:50;7.67;;;3.40;;
6111;SDS011;3086;48.802;9.394;2023-03-13T01:29:12;13.67;;;4.10;;
6111;SDS011;3086;48.802;9.394;2023-03-13T01:32:33;11.43;;;4.33;;
6111;SDS011;3086;48.802;9.394;2023-03-13T01:35:59;12.87;;;3.63;;
6111;SDS011;3086;48.802;9.394;2023-03-13T01:39:21;7.07;;;3.30;;
6111;SDS011;3086;48.802;9.394;2023-03-13T01:42:51;10.03;;;3.90;;
6111;SDS011;3086;48.802;9.394;2023-03-13T01:46:14;10.57;;;4.13;;
6111;SDS011;3086;48.802;9.394;2023-03-13T01:49:37;12.33;;;3.67;;
6111;SDS011;3086;48.802;9.394;2023-03-13T01:52:59;10.43;;;3.93;;
6111;SDS011;3086;48.802;9.394;2023-03-13T01:56:21;5.90;;;3.90;;
6111;SDS011;3086;48.802;9.394;2023-03-13T01:59:48;6.53;;;3.87;;
6111;SDS011;3086;48.802;9.394;2023-03-13T02:03:13;10.77;;;3.87;;
6111;SDS011;3086;48.802;9.394;2023-03-13T02:06:36;9.17;;;3.83;;
6111;SDS011;3086;48.802;9.394;2023-03-13T02:10:00;10.43;;;3.53;;
6111;SDS011;3086;48.802;9.394;2023-03-13T02:13:21;8.13;;;3.83;;
6111;SDS011;3086;48.802;9.394;2023-03-13T02:16:44;7.73;;;3.30;;
6111;SDS011;3086;48.802;9.394;2023-03-13T02:20:08;8.03;;;3.93;;
6111;SDS011;3086;48.802;9.394;2023-03-13T02:23:32;12.83;;;5.10;;
6111;SDS011;3086;48.802;9.394;2023-03-13T02:26:58;18.20;;;8.03;;
6111;SDS011;3086;48.802;9.394;2023-03-13T02:30:19;10.20;;;4.57;;
6111;SDS011;3086;48.802;9.394;2023-03-13T02:33:41;11.07;;;5.93;;
6111;SDS011;3086;48.802;9.394;2023-03-13T02:37:03;9.93;;;3.90;;
6111;SDS011;3086;48.802;9.394;2023-03-13T02:40:27;9.40;;;4.10;;
6111;SDS011;3086;48.802;9.394;2023-03-13T02:43:51;11.43;;;4.50;;
6111;SDS011;3086;48.802;9.394;2023-03-13T02:47:16;9.87;;;4.63;;
6111;SDS011;3086;48.802;9.394;2023-03-13T02:50:38;7.80;;;3.70;;
6111;SDS011;3086;48.802;9.394;2023-03-13T02:54:01;11.60;;;4.13;;
6111;SDS011;3086;48.802;9.394;2023-03-13T02:57:24;10.57;;;3.80;;
6111;SDS011;3086;48.802;9.394;2023-03-13T03:00:46;9.17;;;2.80;;
6111;SDS011;3086;48.802;9.394;2023-03-13T03:04:08;5.27;;;2.80;;
6111;SDS011;3086;48.802;9.394;2023-03-13T03:07:29;6.93;;;3.70;;
6111;SDS011;3086;48.802;9.394;2023-03-13T03:10:51;6.90;;;2.40;;
6111;SDS011;3086;48.802;9.394;2023-03-13T03:14:12;4.70;;;2.67;;
6111;SDS011;3086;48.802;9.394;2023-03-13T03:17:35;7.27;;;3.13;;
6111;SDS011;3086;48.802;9.394;2023-03-13T03:20:57;6.10;;;3.07;;
6111;SDS011;3086;48.802;9.394;2023-03-13T03:24:19;4.73;;;2.57;;
6111;SDS011;3086;48.802;9.394;2023-03-13T03:27:40;6.70;;;2.40;;
6111;SDS011;3086;48.802;9.394;2023-03-13T03:31:03;5.17;;;2.53;;
6111;SDS011;3086;48.802;9.394;2023-03-13T03:34:26;5.77;;;2.77;;
6111;SDS011;3086;48.802;9.394;2023-03-13T03:37:47;3.33;;;2.40;;
6111;SDS011;3086;48.802;9.394;2023-03-13T03:41:10;4.93;;;2.43;;
6111;SDS011;3086;48.802;9.394;2023-03-13T03:44:32;7.63;;;2.50;;
6111;SDS011;3086;48.802;9.394;2023-03-13T03:47:54;3.80;;;2.10;;
6111;SDS011;3086;48.802;9.394;2023-03-13T03:51:20;3.40;;;2.00;;
6111;SDS011;3086;48.802;9.394;2023-03-13T03:54:41;5.83;;;2.70;;
6111;SDS011;3086;48.802;9.394;2023-03-13T03:58:03;3.87;;;2.13;;
6111;SDS011;3086;48.802;9.394;2023-03-13T04:01:24;3.77;;;2.00;;
6111;SDS011;3086;48.802;9.394;2023-03-13T04:04:46;3.20;;;2.00;;
6111;SDS011;3086;48.802;9.394;2023-03-13T04:08:09;3.27;;;2.00;;
6111;SDS011;3086;48.802;9.394;2023-03-13T04:11:30;5.70;;;2.80;;
6111;SDS011;3086;48.802;9.394;2023-03-13T04:14:52;3.43;;;2.00;;
6111;SDS011;3086;48.802;9.394;2023-03-13T04:18:13;4.43;;;2.00;;
6111;SDS011;3086;48.802;9.394;2023-03-13T04:21:35;3.80;;;2.43;;
6111;SDS011;3086;48.802;9.394;2023-03-13T04:25:00;4.50;;;2.67;;
6111;SDS011;3086;48.802;9.394;2023-03-13T04:28:21;3.97;;;1.80;;
6111;SDS011;3086;48.802;9.394;2023-03-13T04:31:43;2.37;;;2.17;;
6111;SDS011;3086;48.802;9.394;2023-03-13T04:35:04;2.27;;;2.00;;
6111;SDS011;3086;48.802;9.394;2023-03-13T04:38:26;4.30;;;1.80;;
6111;SDS011;3086;48.802;9.394;2023-03-13T04:41:49;2.43;;;1.97;;
6111;SDS011;3086;48.802;9.394;2023-03-13T04:45:11;3.43;;;1.70;;
6111;SDS011;3086;48.802;9.394;2023-03-13T04:48:32;1.70;;;1.60;;
6111;SDS011;3086;48.802;9.394;2023-03-13T04:51:54;2.10;;;1.80;;
6111;SDS011;3086;48.802;9.394;2023-03-13T04:55:15;2.57;;;1.90;;
6111;SDS011;3086;48.802;9.394;2023-03-13T04:58:38;4.13;;;1.87;;
6111;SDS011;3086;48.802;9.394;2023-03-13T05:02:00;2.33;;;1.80;;
6111;SDS011;3086;48.802;9.394;2023-03-13T05:05:21;2.00;;;1.70;;
6111;SDS011;3086;48.802;9.394;2023-03-13T05:08:43;2.60;;;1.63;;
6111;SDS011;3086;48.802;9.394;2023-03-13T05:12:05;3.13;;;1.60;;
6111;SDS011;3086;48.802;9.394;2023-03-13T05:15:28;1.70;;;1.60;;
6111;SDS011;3086;48.802;9.394;2023-03-13T05:18:49;4.20;;;1.73;;
6111;SDS011;3086;48.802;9.394;2023-03-13T05:22:11;2.73;;;1.73;;
6111;SDS011;3086;48.802;9.394;2023-03-13T05:25:32;2.27;;;1.43;;
6111;SDS011;3086;48.802;9.394;2023-03-13T05:28:54;1.83;;;1.70;;
6111;SDS011;3086;48.802;9.394;2023-03-13T05:32:17;1.97;;;1.50;;
6111;SDS011;3086;48.802;9.394;2023-03-13T05:35:38;2.27;;;2.07;;
6111;SDS011;3086;48.802;9.394;2023-03-13T05:39:00;2.13;;;1.83;;
6111;SDS011;3086;48.802;9.394;2023-03-13T05:42:21;2.13;;;1.93;;
6111;SDS011;3086;48.802;9.394;2023-03-13T05:45:44;3.30;;;1.87;;
6111;SDS011;3086;48.802;9.394;2023-03-13T05:49:06;3.60;;;1.60;;
6111;SDS011;3086;48.802;9.394;2023-03-13T05:52:28;1.83;;;1.73;;
6111;SDS011;3086;48.802;9.394;2023-03-13T05:55:49;2.17;;;1.73;;
6111;SDS011;3086;48.802;9.394;2023-03-13T05:59:11;1.90;;;1.80;;
6111;SDS011;3086;48.802;9.394;2023-03-13T06:02:32;1.83;;;1.73;;
6111;SDS011;3086;48.802;9.394;2023-03-13T06:05:57;2.97;;;1.87;;
6111;SDS011;3086;48.802;9.394;2023-03-13T06:09:19;1.63;;;1.40;;
6111;SDS011;3086;48.802;9.394;2023-03-13T06:12:40;2.67;;;1.70;;
6111;SDS011;3086;48.802;9.394;2023-03-13T06:16:02;3.10;;;2.00;;
6111;SDS011;3086;48.802;9.394;2023-03-13T06:19:24;2.93;;;1.70;;
6111;SDS011;3086;48.802;9.394;2023-03-13T06:22:47;4.53;;;2.53;;
6111;SDS011;3086;48.802;9.394;2023-03-13T06:26:08;2.40;;;1.83;;
6111;SDS011;3086;48.802;9.394;2023-03-13T06:29:30;1.93;;;1.70;;
6111;SDS011;3086;48.802;9.394;2023-03-13T06:32:51;2.00;;;1.60;;
6111;SDS011;3086;48.802;9.394;2023-03-13T06:36:13;1.47;;;1.37;;
6111;SDS011;3086;48.802;9.394;2023-03-13T06:39:36;2.33;;;1.83;;
6111;SDS011;3086;48.802;9.394;2023-03-13T06:42:57;1.43;;;1.30;;
6111;SDS011;3086;48.802;9.394;2023-03-13T06:46:20;2.00;;;1.60;;
6111;SDS011;3086;48.802;9.394;2023-03-13T06:49:42;1.60;;;1.50;;
6111;SDS011;3086;48.802;9.394;2023-03-13T06:53:03;2.63;;;1.50;;
6111;SDS011;3086;48.802;9.394;2023-03-13T06:56:26;1.63;;;1.50;;
6111;SDS011;3086;48.802;9.394;2023-03-13T06:59:48;1.80;;;1.37;;
6111;SDS011;3086;48.802;9.394;2023-03-13T07:03:09;1.40;;;1.30;;
6111;SDS011;3086;48.802;9.394;2023-03-13T07:06:31;2.30;;;1.50;;
6111;SDS011;3086;48.802;9.394;2023-03-13T07:09:52;1.87;;;1.40;;
6111;SDS011;3086;48.802;9.394;2023-03-13T07:13:15;3.60;;;1.50;;
6111;SDS011;3086;48.802;9.394;2023-03-13T07:16:38;1.80;;;1.40;;
6111;SDS011;3086;48.802;9.394;2023-03-13T07:20:00;1.67;;;1.57;;
6111;SDS011;3086;48.802;9.394;2023-03-13T07:23:22;1.73;;;1.57;;
6111;SDS011;3086;48.802;9.394;2023-03-13T07:26:43;1.50;;;1.40;;
6111;SDS011;3086;48.802;9.394;2023-03-13T07:30:07;1.60;;;1.50;;
6111;SDS011;3086;48.802;9.394;2023-03-13T07:33:30;1.87;;;1.33;;
6111;SDS011;3086;48.802;9.394;2023-03-13T07:36:51;1.53;;;1.43;;
6111;SDS011;3086;48.802;9.394;2023-03-13T07:40:13;1.53;;;1.43;;
6111;SDS011;3086;48.802;9.394;2023-03-13T07:43:34;1.70;;;1.27;;
6111;SDS011;3086;48.802;9.394;2023-03-13T07:46:59;1.53;;;1.43;;
6111;SDS011;3086;48.802;9.394;2023-03-13T07:50:20;1.33;;;1.30;;
6111;SDS011;3086;48.802;9.394;2023-03-13T07:53:42;1.87;;;1.70;;
6111;SDS011;3086;48.802;9.394;2023-03-13T07:57:03;1.60;;;1.50;;
6111;SDS011;3086;48.802;9.394;2023-03-13T08:00:25;1.23;;;1.20;;
6111;SDS011;3086;48.802;9.394;2023-03-13T08:03:48;1.73;;;1.40;;
6111;SDS011;3086;48.802;9.394;2023-03-13T08:07:10;1.70;;;1.60;;
6111;SDS011;3086;48.802;9.394;2023-03-13T08:10:33;1.40;;;1.33;;
6111;SDS011;3086;48.802;9.394;2023-03-13T08:13:55;2.03;;;1.50;;
6111;SDS011;3086;48.802;9.394;2023-03-13T08:17:18;1.10;;;1.10;;
6111;SDS011;3086;48.802;9.394;2023-03-13T08:20:40;1.50;;;1.40;;
6111;SDS011;3086;48.802;9.394;2023-03-13T08:24:03;16.20;;;10.53;;
6111;SDS011;3086;48.802;9.394;2023-03-13T08:27:28;1.20;;;1.20;;
6111;SDS011;3086;48.802;9.394;2023-03-13T08:30:49;1.77;;;1.30;;
6111;SDS011;3086;48.802;9.394;2023-03-13T08:34:11;2.00;;;1.40;;
6111;SDS011;3086;48.802;9.394;2023-03-13T08:37:34;1.47;;;1.37;;
6111;SDS011;3086;48.802;9.394;2023-03-13T08:40:56;1.43;;;1.33;;
6111;SDS011;3086;48.802;9.394;2023-03-13T08:44:17;1.87;;;1.60;;
6111;SDS011;3086;48.802;9.394;2023-03-13T08:47:40;1.83;;;1.73;;
6111;SDS011;3086;48.802;9.394;2023-03-13T08:51:01;1.60;;;1.50;;
6111;SDS011;3086;48.802;9.394;2023-03-13T08:54:25;1.47;;;1.40;;
6111;SDS011;3086;48.802;9.394;2023-03-13T08:57:46;2.60;;;1.97;;
6111;SDS011;3086;48.802;9.394;2023-03-13T09:01:08;2.00;;;1.80;;
6111;SDS011;3086;48.802;9.394;2023-03-13T09:04:30;1.57;;;1.47;;
6111;SDS011;3086;48.802;9.394;2023-03-13T09:07:52;1.87;;;1.77;;
6111;SDS011;3086;48.802;9.394;2023-03-13T09:11:16;4.37;;;3.33;;
6111;SDS011;3086;48.802;9.394;2023-03-13T09:14:38;1.60;;;1.50;;
6111;SDS011;3086;48.802;9.394;2023-03-13T09:17:59;1.80;;;1.70;;
6111;SDS011;3086;48.802;9.394;2023-03-13T09:21:22;2.20;;;1.70;;
6111;SDS011;3086;48.802;9.394;2023-03-13T09:24:45;2.50;;;2.30;;
6111;SDS011;3086;48.802;9.394;2023-03-13T09:28:08;1.93;;;1.70;;
6111;SDS011;3086;48.802;9.394;2023-03-13T09:31:30;2.80;;;1.90;;
6111;SDS011;3086;48.802;9.394;2023-03-13T09:34:52;1.50;;;1.40;;
6111;SDS011;3086;48.802;9.394;2023-03-13T09:38:13;2.90;;;1.73;;
6111;SDS011;3086;48.802;9.394;2023-03-13T09:41:38;2.27;;;1.67;;
6111;SDS011;3086;48.802;9.394;2023-03-13T09:45:03;4.57;;;1.63;;
6111;SDS011;3086;48.802;9.394;2023-03-13T09:48:28;2.30;;;1.70;;
6111;SDS011;3086;48.802;9.394;2023-03-13T09:51:52;2.03;;;1.83;;
6111;SDS011;3086;48.802;9.394;2023-03-13T09:55:17;5.33;;;4.87;;
6111;SDS011;3086;48.802;9.394;2023-03-13T09:58:46;1.60;;;1.50;;
6111;SDS011;3086;48.802;9.394;2023-03-13T10:02:15;3.53;;;1.80;;
6111;SDS011;3086;48.802;9.394;2023-03-13T10:05:42;2.40;;;1.90;;
6111;SDS011;3086;48.802;9.394;2023-03-13T10:09:15;2.37;;;1.80;;
6111;SDS011;3086;48.802;9.394;2023-03-13T10:12:41;5.43;;;2.27;;
6111;SDS011;3086;48.802;9.394;2023-03-13T10:16:06;2.30;;;1.93;;
6111;SDS011;3086;48.802;9.394;2023-03-13T10:19:32;4.20;;;2.00;;
6111;SDS011;3086;48.802;9.394;2023-03-13T10:22:58;2.53;;;1.60;;
6111;SDS011;3086;48.802;9.394;2023-03-13T10:26:22;2.23;;;1.80;;
6111;SDS011;3086;48.802;9.394;2023-03-13T10:29:45;1.83;;;1.50;;
6111;SDS011;3086;48.802;9.394;2023-03-13T10:33:21;3.97;;;1.90;;
6111;SDS011;3086;48.802;9.394;2023-03-13T10:36:45;4.80;;;2.30;;
6111;SDS011;3086;48.802;9.394;2023-03-13T10:40:12;3.10;;;2.17;;
6111;SDS011;3086;48.802;9.394;2023-03-13T10:43:35;3.07;;;2.10;;
6111;SDS011;3086;48.802;9.394;2023-03-13T10:47:10;1.90;;;1.70;;
6111;SDS011;3086;48.802;9.394;2023-03-13T10:50:33;4.10;;;1.90;;
6111;SDS011;3086;48.802;9.394;2023-03-13T10:53:57;3.27;;;1.90;;
6111;SDS011;3086;48.802;9.394;2023-03-13T10:57:26;3.30;;;1.90;;
6111;SDS011;3086;48.802;9.394;2023-03-13T11:00:49;2.07;;;1.90;;
6111;SDS011;3086;48.802;9.394;2023-03-13T11:04:18;3.53;;;1.53;;
6111;SDS011;3086;48.802;9.394;2023-03-13T11:07:40;3.30;;;1.90;;
6111;SDS011;3086;48.802;9.394;2023-03-13T11:11:14;3.93;;;2.20;;
6111;SDS011;3086;48.802;9.394;2023-03-13T11:14:37;3.00;;;1.97;;
6111;SDS011;3086;48.802;9.394;2023-03-13T11:18:00;5.77;;;1.97;;
6111;SDS011;3086;48.802;9.394;2023-03-13T11:21:27;3.37;;;1.80;;
6111;SDS011;3086;48.802;9.394;2023-03-13T11:24:54;2.40;;;1.80;;
6111;SDS011;3086;48.802;9.394;2023-03-13T11:28:26;3.60;;;2.23;;
6111;SDS011;3086;48.802;9.394;2023-03-13T11:31:50;3.20;;;1.80;;
6111;SDS011;3086;48.802;9.394;2023-03-13T11:35:17;2.07;;;1.70;;
6111;SDS011;3086;48.802;9.394;2023-03-13T11:38:42;2.03;;;1.63;;
6111;SDS011;3086;48.802;9.394;2023-03-13T11:42:06;1.97;;;1.63;;
6111;SDS011;3086;48.802;9.394;2023-03-13T11:45:37;3.07;;;1.70;;
6111;SDS011;3086;48.802;9.394;2023-03-13T11:53:25;2.03;;;1.80;;
6111;SDS011;3086;48.802;9.394;2023-03-13T11:56:55;1.97;;;1.53;;
6111;SDS011;3086;48.802;9.394;2023-03-13T12:00:20;3.97;;;2.07;;
6111;SDS011;3086;48.802;9.394;2023-03-13T12:03:49;2.83;;;2.10;;
6111;SDS011;3086;48.802;9.394;2023-03-13T12:07:18;2.60;;;1.80;;
6111;SDS011;3086;48.802;9.394;2023-03-13T12:10:43;4.10;;;1.80;;
6111;SDS011;3086;48.802;9.394;2023-03-13T12:14:09;3.33;;;1.90;;
6111;SDS011;3086;48.802;9.394;2023-03-13T12:17:33;4.20;;;2.03;;
6111;SDS011;3086;48.802;9.394;2023-03-13T12:20:57;2.60;;;1.53;;
6111;SDS011;3086;48.802;9.394;2023-03-13T12:24:25;1.97;;;1.77;;
6111;SDS011;3086;48.802;9.394;2023-03-13T12:27:48;4.07;;;1.77;;
6111;SDS011;3086;48.802;9.394;2023-03-13T12:31:13;1.90;;;1.77;;
6111;SDS011;3086;48.802;9.394;2023-03-13T12:34:41;1.70;;;1.60;;
6111;SDS011;3086;48.802;9.394;2023-03-13T12:38:13;2.20;;;1.73;;
6111;SDS011;3086;48.802;9.394;2023-03-13T12:41:39;2.40;;;1.80;;
6111;SDS011;3086;48.802;9.394;2023-03-13T12:45:03;1.63;;;1.53;;
6111;SDS011;3086;48.802;9.394;2023-03-13T12:48:33;2.70;;;1.57;;
6111;SDS011;3086;48.802;9.394;2023-03-13T12:52:23;3.63;;;1.70;;
6111;SDS011;3086;48.802;9.394;2023-03-13T12:56:01;1.90;;;1.40;;
6111;SDS011;3086;48.802;9.394;2023-03-13T12:59:29;3.33;;;1.77;;
6111;SDS011;3086;48.802;9.394;2023-03-13T13:03:00;1.67;;;1.57;;
6111;SDS011;3086;48.802;9.394;2023-03-13T13:06:23;3.70;;;1.97;;
6111;SDS011;3086;48.802;9.394;2023-03-13T13:09:57;3.07;;;1.60;;
6111;SDS011;3086;48.802;9.394;2023-03-13T13:13:29;1.40;;;1.30;;
6111;SDS011;3086;48.802;9.394;2023-03-13T13:16:51;4.70;;;2.53;;
6111;SDS011;3086;48.802;9.394;2023-03-13T13:20:31;3.77;;;1.50;;
6111;SDS011;3086;48.802;9.394;2023-03-13T13:23:55;2.37;;;1.70;;
6111;SDS011;3086;48.802;9.394;2023-03-13T13:27:55;1.43;;;1.30;;
6111;SDS011;3086;48.802;9.394;2023-03-13T13:35:27;4.23;;;1.60;;
6111;SDS011;3086;48.802;9.394;2023-03-13T13:38:50;6.70;;;2.60;;
6111;SDS011;3086;48.802;9.394;2023-03-13T13:46:04;2.93;;;1.60;;
6111;SDS011;3086;48.802;9.394;2023-03-13T13:49:33;3.63;;;1.60;;
6111;SDS011;3086;48.802;9.394;2023-03-13T13:53:22;2.33;;;1.60;;
6111;SDS011;3086;48.802;9.394;2023-03-13T13:56:48;2.07;;;1.50;;
6111;SDS011;3086;48.802;9.394;2023-03-13T14:00:15;2.03;;;1.47;;
6111;SDS011;3086;48.802;9.394;2023-03-13T14:03:39;3.43;;;1.80;;
6111;SDS011;3086;48.802;9.394;2023-03-13T14:07:03;2.57;;;1.50;;
6111;SDS011;3086;48.802;9.394;2023-03-13T14:10:29;2.40;;;1.70;;
6111;SDS011;3086;48.802;9.394;2023-03-13T14:14:10;2.20;;;1.73;;
6111;SDS011;3086;48.802;9.394;2023-03-13T14:17:37;4.27;;;2.03;;
6111;SDS011;3086;48.802;9.394;2023-03-13T14:20:59;3.17;;;1.63;;
6111;SDS011;3086;48.802;9.394;2023-03-13T14:24:23;3.40;;;1.67;;
6111;SDS011;3086;48.802;9.394;2023-03-13T14:27:45;1.73;;;1.60;;
6111;SDS011;3086;48.802;9.394;2023-03-13T14:31:07;4.37;;;1.57;;
6111;SDS011;3086;48.802;9.394;2023-03-13T14:34:31;2.00;;;1.47;;
6111;SDS011;3086;48.802;9.394;2023-03-13T14:38:01;2.60;;;1.60;;
6111;SDS011;3086;48.802;9.394;2023-03-13T14:41:27;1.83;;;1.30;;
6111;SDS011;3086;48.802;9.394;2023-03-13T14:44:50;4.07;;;2.30;;
6111;SDS011;3086;48.802;9.394;2023-03-13T14:48:14;1.43;;;1.33;;
6111;SDS011;3086;48.802;9.394;2023-03-13T14:51:39;2.77;;;1.43;;
6111;SDS011;3086;48.802;9.394;2023-03-13T14:55:02;2.63;;;1.70;;
6111;SDS011;3086;48.802;9.394;2023-03-13T14:58:27;2.30;;;1.70;;
6111;SDS011;3086;48.802;9.394;2023-03-13T15:01:56;2.40;;;1.70;;
6111;SDS011;3086;48.802;9.394;2023-03-13T15:05:30;2.97;;;1.73;;
6111;SDS011;3086;48.802;9.394;2023-03-13T15:12:41;4.57;;;1.83;;
6111;SDS011;3086;48.802;9.394;2023-03-13T15:16:11;1.87;;;1.57;;
6111;SDS011;3086;48.802;9.394;2023-03-13T15:19:34;1.93;;;1.70;;
6111;SDS011;3086;48.802;9.394;2023-03-13T15:22:56;2.13;;;1.60;;
6111;SDS011;3086;48.802;9.394;2023-03-13T15:26:18;2.97;;;1.40;;
6111;SDS011;3086;48.802;9.394;2023-03-13T15:29:40;2.70;;;1.43;;
6111;SDS011;3086;48.802;9.394;2023-03-13T15:33:02;4.63;;;1.60;;
6111;SDS011;3086;48.802;9.394;2023-03-13T15:36:24;2.87;;;1.53;;
6111;SDS011;3086;48.802;9.394;2023-03-13T15:39:47;3.50;;;1.53;;
6111;SDS011;3086;48.802;9.394;2023-03-13T15:43:09;2.33;;;1.60;;
6111;SDS011;3086;48.802;9.394;2023-03-13T15:46:31;2.83;;;1.77;;
6111;SDS011;3086;48.802;9.394;2023-03-13T15:49:54;2.53;;;1.50;;
6111;SDS011;3086;48.802;9.394;2023-03-13T15:53:16;3.90;;;2.20;;
6111;SDS011;3086;48.802;9.394;2023-03-13T15:56:38;3.40;;;2.20;;
6111;SDS011;3086;48.802;9.394;2023-03-13T16:00:00;4.83;;;1.67;;
6111;SDS011;3086;48.802;9.394;2023-03-13T16:03:23;2.07;;;1.30;;
6111;SDS011;3086;48.802;9.394;2023-03-13T16:06:46;3.97;;;1.50;;
6111;SDS011;3086;48.802;9.394;2023-03-13T16:10:11;3.90;;;1.77;;
6111;SDS011;3086;48.802;9.394;2023-03-13T16:13:36;1.70;;;1.60;;
6111;SDS011;3086;48.802;9.394;2023-03-13T16:16:57;1.57;;;1.40;;
6111;SDS011;3086;48.802;9.394;2023-03-13T16:20:20;1.20;;;1.10;;
6111;SDS011;3086;48.802;9.394;2023-03-13T16:23:45;4.37;;;1.83;;
6111;SDS011;3086;48.802;9.394;2023-03-13T16:27:13;2.00;;;1.63;;
6111;SDS011;3086;48.802;9.394;2023-03-13T16:30:35;2.73;;;1.80;;
6111;SDS011;3086;48.802;9.394;2023-03-13T16:33:57;1.63;;;1.53;;
6111;SDS011;3086;48.802;9.394;2023-03-13T16:37:19;2.43;;;1.60;;
6111;SDS011;3086;48.802;9.394;2023-03-13T16:40:42;1.57;;;1.47;;
6111;SDS011;3086;48.802;9.394;2023-03-13T16:44:04;3.40;;;1.70;;
6111;SDS011;3086;48.802;9.394;2023-03-13T16:47:26;1.60;;;1.50;;
6111;SDS011;3086;48.802;9.394;2023-03-13T16:50:48;3.47;;;1.87;;
6111;SDS011;3086;48.802;9.394;2023-03-13T16:54:10;7.90;;;6.73;;
6111;SDS011;3086;48.802;9.394;2023-03-13T16:57:33;2.50;;;1.70;;
6111;SDS011;3086;48.802;9.394;2023-03-13T17:00:54;2.87;;;1.87;;
6111;SDS011;3086;48.802;9.394;2023-03-13T17:04:16;2.80;;;1.40;;
6111;SDS011;3086;48.802;9.394;2023-03-13T17:07:37;3.40;;;1.53;;
6111;SDS011;3086;48.802;9.394;2023-03-13T17:10:59;1.40;;;1.30;;
6111;SDS011;3086;48.802;9.394;2023-03-13T17:14:22;1.93;;;1.77;;
6111;SDS011;3086;48.802;9.394;2023-03-13T17:17:43;3.30;;;2.30;;
6111;SDS011;3086;48.802;9.394;2023-03-13T17:21:11;7.33;;;2.30;;
6111;SDS011;3086;48.802;9.394;2023-03-13T17:24:33;5.90;;;2.80;;
6111;SDS011;3086;48.802;9.394;2023-03-13T17:27:55;4.80;;;2.80;;
6111;SDS011;3086;48.802;9.394;2023-03-13T17:31:18;7.33;;;3.07;;
6111;SDS011;3086;48.802;9.394;2023-03-13T17:34:40;4.93;;;3.07;;
6111;SDS011;3086;48.802;9.394;2023-03-13T17:38:02;8.73;;;3.00;;
6111;SDS011;3086;48.802;9.394;2023-03-13T17:41:24;3.77;;;2.90;;
6111;SDS011;3086;48.802;9.394;2023-03-13T17:44:47;3.90;;;2.77;;
6111;SDS011;3086;48.802;9.394;2023-03-13T17:48:10;5.17;;;2.50;;
6111;SDS011;3086;48.802;9.394;2023-03-13T17:51:32;6.13;;;2.77;;
6111;SDS011;3086;48.802;9.394;2023-03-13T17:54:55;6.33;;;2.80;;
6111;SDS011;3086;48.802;9.394;2023-03-13T17:58:16;3.40;;;2.60;;
6111;SDS011;3086;48.802;9.394;2023-03-13T18:01:38;2.80;;;2.10;;
6111;SDS011;3086;48.802;9.394;2023-03-13T18:05:00;5.33;;;2.87;;
6111;SDS011;3086;48.802;9.394;2023-03-13T18:08:22;2.10;;;2.00;;
6111;SDS011;3086;48.802;9.394;2023-03-13T18:11:45;3.43;;;2.50;;
6111;SDS011;3086;48.802;9.394;2023-03-13T18:15:07;2.50;;;2.10;;
6111;SDS011;3086;48.802;9.394;2023-03-13T18:18:29;4.00;;;2.20;;
6111;SDS011;3086;48.802;9.394;2023-03-13T18:21:52;4.07;;;2.13;;
6111;SDS011;3086;48.802;9.394;2023-03-13T18:25:15;3.53;;;2.73;;
6111;SDS011;3086;48.802;9.394;2023-03-13T18:28:37;6.40;;;3.00;;
6111;SDS011;3086;48.802;9.394;2023-03-13T18:31:58;6.13;;;2.40;;
6111;SDS011;3086;48.802;9.394;2023-03-13T18:35:20;3.03;;;2.30;;
6111;SDS011;3086;48.802;9.394;2023-03-13T18:38:43;3.33;;;2.50;;
6111;SDS011;3086;48.802;9.394;2023-03-13T18:42:05;2.83;;;2.53;;
6111;SDS011;3086;48.802;9.394;2023-03-13T18:45:29;6.43;;;3.00;;
6111;SDS011;3086;48.802;9.394;2023-03-13T18:48:51;10.77;;;2.47;;
6111;SDS011;3086;48.802;9.394;2023-03-13T18:52:12;3.87;;;1.90;;
6111;SDS011;3086;48.802;9.394;2023-03-13T18:55:35;4.93;;;1.93;;
6111;SDS011;3086;48.802;9.394;2023-03-13T18:58:57;2.63;;;1.90;;
6111;SDS011;3086;48.802;9.394;2023-03-13T19:02:19;5.53;;;3.97;;
6111;SDS011;3086;48.802;9.394;2023-03-13T19:05:41;3.13;;;2.47;;
6111;SDS011;3086;48.802;9.394;2023-03-13T19:09:05;3.63;;;3.00;;
6111;SDS011;3086;48.802;9.394;2023-03-13T19:12:34;6.03;;;3.00;;
6111;SDS011;3086;48.802;9.394;2023-03-13T19:15:56;4.57;;;2.67;;
6111;SDS011;3086;48.802;9.394;2023-03-13T19:19:18;5.20;;;2.73;;
6111;SDS011;3086;48.802;9.394;2023-03-13T19:22:41;2.90;;;2.53;;
6111;SDS011;3086;48.802;9.394;2023-03-13T19:26:02;4.90;;;2.07;;
6111;SDS011;3086;48.802;9.394;2023-03-13T19:29:26;4.27;;;2.23;;
6111;SDS011;3086;48.802;9.394;2023-03-13T19:32:48;4.07;;;2.30;;
6111;SDS011;3086;48.802;9.394;2023-03-13T19:36:10;4.07;;;3.67;;
6111;SDS011;3086;48.802;9.394;2023-03-13T19:39:32;2.80;;;2.50;;
6111;SDS011;3086;48.802;9.394;2023-03-13T19:42:54;3.80;;;2.73;;
6111;SDS011;3086;48.802;9.394;2023-03-13T19:46:21;4.43;;;2.63;;
6111;SDS011;3086;48.802;9.394;2023-03-13T19:49:44;3.80;;;2.83;;
6111;SDS011;3086;48.802;9.394;2023-03-13T19:53:08;5.87;;;3.57;;
6111;SDS011;3086;48.802;9.394;2023-03-13T19:56:30;4.53;;;3.20;;
6111;SDS011;3086;48.802;9.394;2023-03-13T19:59:52;4.67;;;3.40;;
6111;SDS011;3086;48.802;9.394;2023-03-13T20:03:15;4.83;;;4.27;;
6111;SDS011;3086;48.802;9.394;2023-03-13T20:06:37;8.07;;;4.40;;
6111;SDS011;3086;48.802;9.394;2023-03-13T20:09:59;6.40;;;5.07;;
6111;SDS011;3086;48.802;9.394;2023-03-13T20:13:21;5.90;;;3.23;;
6111;SDS011;3086;48.802;9.394;2023-03-13T20:16:42;11.63;;;5.03;;
6111;SDS011;3086;48.802;9.394;2023-03-13T20:20:08;7.53;;;3.80;;
6111;SDS011;3086;48.802;9.394;2023-03-13T20:23:32;7.00;;;3.70;;
6111;SDS011;3086;48.802;9.394;2023-03-13T20:26:53;5.57;;;3.47;;
6111;SDS011;3086;48.802;9.394;2023-03-13T20:30:15;2.37;;;2.00;;
6111;SDS011;3086;48.802;9.394;2023-03-13T20:33:37;2.67;;;1.20;;
6111;SDS011;3086;48.802;9.394;2023-03-13T20:37:00;1.50;;;1.40;;
6111;SDS011;3086;48.802;9.394;2023-03-13T20:40:22;2.00;;;1.50;;
6111;SDS011;3086;48.802;9.394;2023-03-13T20:43:44;3.67;;;1.60;;
6111;SDS011;3086;48.802;9.394;2023-03-13T20:47:05;2.20;;;1.50;;
6111;SDS011;3086;48.802;9.394;2023-03-13T20:50:28;1.53;;;1.43;;
6111;SDS011;3086;48.802;9.394;2023-03-13T20:53:51;2.43;;;1.57;;
6111;SDS011;3086;48.802;9.394;2023-03-13T20:57:13;2.13;;;1.77;;
6111;SDS011;3086;48.802;9.394;2023-03-13T21:00:35;1.90;;;1.73;;
6111;SDS011;3086;48.802;9.394;2023-03-13T21:03:57;2.13;;;1.60;;
6111;SDS011;3086;48.802;9.394;2023-03-13T21:07:19;2.67;;;1.73;;
6111;SDS011;3086;48.802;9.394;2023-03-13T21:10:42;2.77;;;1.80;;
6111;SDS011;3086;48.802;9.394;2023-03-13T21:14:04;1.93;;;1.67;;
6111;SDS011;3086;48.802;9.394;2023-03-13T21:17:25;2.27;;;1.60;;
6111;SDS011;3086;48.802;9.394;2023-03-13T21:20:47;2.63;;;2.40;;